createdAt,value
2022-11-17T00:01:47.177Z,3.76
2022-11-17T00:04:19.453Z,3.74
2022-11-17T00:06:54.200Z,3.74
2022-11-17T00:09:27.040Z,3.74
2022-11-17T00:12:22.092Z,3.72
2022-11-17T00:14:54.736Z,3.70
2022-11-17T00:17:27.004Z,3.69
2022-11-17T00:20:30.947Z,3.68
2022-11-17T00:23:07.339Z,3.67
2022-11-17T00:25:42.055Z,3.62
2022-11-17T00:28:14.301Z,3.60
2022-11-17T00:31:04.240Z,3.60
2022-11-17T00:36:59.309Z,3.55
2022-11-17T00:39:34.957Z,3.51
2022-11-17T00:42:07.942Z,3.52
2022-11-17T00:44:40.090Z,3.56
2022-11-17T00:47:12.168Z,3.60
2022-11-17T00:49:46.027Z,3.64
2022-11-17T00:52:30.300Z,3.63
2022-11-17T00:55:02.623Z,3.59
2022-11-17T00:57:35.653Z,3.58
2022-11-17T01:00:12.316Z,3.55
2022-11-17T01:05:38.426Z,3.52
2022-11-17T01:08:10.852Z,3.38
2022-11-17T01:10:47.141Z,3.41
2022-11-17T01:13:22.318Z,3.39
2022-11-17T01:15:54.426Z,3.39
2022-11-17T01:18:29.705Z,3.37
2022-11-17T01:21:10.148Z,3.37
2022-11-17T01:23:47.363Z,3.40
2022-11-17T01:26:22.049Z,3.41
2022-11-17T01:28:58.606Z,3.42
2022-11-17T01:31:54.568Z,3.37
2022-11-17T01:34:55.966Z,3.34
2022-11-17T01:37:29.461Z,3.29
2022-11-17T01:40:01.620Z,3.25
2022-11-17T01:42:33.709Z,3.22
2022-11-17T01:45:17.966Z,3.21
2022-11-17T01:47:53.742Z,3.21
2022-11-17T01:50:33.016Z,3.21
2022-11-17T01:53:10.213Z,3.21
2022-11-17T01:55:52.257Z,3.21
2022-11-17T01:58:31.965Z,3.19
2022-11-17T02:01:05.080Z,3.15
2022-11-17T02:03:39.951Z,3.12
2022-11-17T02:06:20.855Z,3.10
2022-11-17T02:08:55.011Z,3.09
2022-11-17T02:11:28.944Z,3.06
2022-11-17T02:14:01.336Z,3.05
2022-11-17T02:16:33.682Z,3.06
2022-11-17T02:19:05.877Z,3.03
2022-11-17T02:22:24.082Z,3.03
2022-11-17T02:25:05.842Z,2.99
2022-11-17T02:27:58.114Z,2.94
2022-11-17T02:30:37.005Z,2.88
2022-11-17T02:33:18.505Z,2.87
2022-11-17T02:35:58.236Z,2.89
2022-11-17T02:38:34.175Z,2.86
2022-11-17T02:41:13.813Z,2.85
2022-11-17T02:44:07.860Z,2.84
2022-11-17T02:46:48.640Z,2.82
2022-11-17T02:49:25.173Z,2.81
2022-11-17T02:52:00.616Z,2.78
2022-11-17T02:54:34.448Z,2.76
2022-11-17T02:57:06.913Z,2.74
2022-11-17T02:59:44.199Z,2.75
2022-11-17T03:02:26.147Z,2.76
2022-11-17T03:05:11.106Z,2.71
2022-11-17T03:08:11.206Z,2.72
2022-11-17T03:11:07.093Z,2.67
2022-11-17T03:13:56.098Z,2.64
2022-11-17T03:16:37.442Z,2.58
2022-11-17T03:19:16.006Z,2.57
2022-11-17T03:21:58.201Z,2.53
2022-11-17T03:24:34.973Z,2.51
2022-11-17T03:27:15.497Z,2.51
2022-11-17T03:29:51.722Z,2.50
2022-11-17T03:32:26.036Z,2.49
2022-11-17T03:35:05.379Z,2.47
2022-11-17T03:37:45.245Z,2.41
2022-11-17T03:40:23.775Z,2.41
2022-11-17T03:43:00.166Z,2.39
2022-11-17T03:45:38.556Z,2.32
2022-11-17T03:48:18.823Z,2.34
2022-11-17T03:50:58.836Z,2.31
2022-11-17T03:53:32.100Z,2.24
2022-11-17T03:56:10.366Z,2.21
2022-11-17T03:58:51.035Z,2.19
2022-11-17T04:01:23.930Z,2.20
2022-11-17T04:03:56.137Z,2.21
2022-11-17T04:06:28.428Z,2.16
2022-11-17T04:09:00.562Z,2.13
2022-11-17T04:11:51.159Z,2.11
2022-11-17T04:14:55.535Z,2.09
2022-11-17T04:17:29.831Z,2.07
2022-11-17T04:20:37.096Z,2.09
2022-11-17T04:23:12.689Z,2.07
2022-11-17T04:26:25.977Z,2.03
2022-11-17T04:28:58.689Z,2.04
2022-11-17T04:31:52.209Z,2.04
2022-11-17T04:34:29.822Z,2.02
2022-11-17T04:37:18.537Z,1.98
2022-11-17T04:40:02.325Z,1.95
2022-11-17T04:42:48.432Z,1.90
2022-11-17T04:45:23.400Z,1.90
2022-11-17T04:47:55.550Z,1.92
2022-11-17T04:50:27.701Z,1.90
2022-11-17T04:55:49.963Z,1.83
2022-11-17T04:58:23.017Z,1.80
2022-11-17T05:00:55.599Z,1.80
2022-11-17T05:03:27.813Z,1.74
2022-11-17T05:05:59.992Z,1.69
2022-11-17T05:08:37.448Z,1.71
2022-11-17T05:11:28.565Z,1.70
2022-11-17T05:14:08.965Z,1.65
2022-11-17T05:17:08.410Z,1.64
2022-11-17T05:19:44.375Z,1.60
2022-11-17T05:25:44.833Z,1.54
2022-11-17T05:28:17.071Z,1.57
2022-11-17T05:30:49.856Z,1.54
2022-11-17T05:33:21.970Z,1.54
2022-11-17T05:35:54.096Z,1.52
2022-11-17T05:38:26.220Z,1.52
2022-11-17T05:40:58.324Z,1.51
2022-11-17T05:43:30.699Z,1.46
2022-11-17T05:46:02.791Z,1.44
2022-11-17T05:48:35.220Z,1.41
2022-11-17T05:51:10.473Z,1.38
2022-11-17T05:53:45.611Z,1.37
2022-11-17T05:56:36.948Z,1.34
2022-11-17T05:59:33.610Z,1.27
2022-11-17T06:02:09.953Z,1.24
2022-11-17T06:04:42.296Z,1.24
2022-11-17T06:07:14.577Z,1.22
2022-11-17T06:09:47.023Z,1.16
2022-11-17T06:12:19.821Z,1.12
2022-11-17T06:14:52.182Z,1.07
2022-11-17T06:17:28.116Z,1.00
2022-11-17T06:20:07.415Z,0.98
2022-11-17T06:22:42.846Z,0.96
2022-11-17T06:25:19.682Z,0.95
2022-11-17T06:27:54.211Z,0.90
2022-11-17T06:30:27.364Z,0.88
2022-11-17T06:33:01.152Z,0.87
2022-11-17T06:35:35.299Z,0.82
2022-11-17T06:38:07.381Z,0.80
2022-11-17T06:40:39.530Z,0.78
2022-11-17T06:43:11.713Z,0.77
2022-11-17T06:45:46.035Z,0.79
2022-11-17T06:48:25.328Z,0.83
2022-11-17T06:50:57.844Z,0.81
2022-11-17T06:53:30.215Z,0.82
2022-11-17T06:56:07.625Z,0.81
2022-11-17T06:58:41.448Z,0.82
2022-11-17T07:04:03.952Z,0.86
2022-11-17T07:06:40.402Z,0.88
2022-11-17T07:09:16.408Z,0.87
2022-11-17T07:11:51.600Z,0.87
2022-11-17T07:14:23.942Z,0.86
2022-11-17T07:16:56.002Z,0.88
2022-11-17T07:19:28.096Z,0.89
2022-11-17T07:22:00.237Z,0.87
2022-11-17T07:24:32.372Z,0.86
2022-11-17T07:27:06.608Z,0.87
2022-11-17T07:29:38.677Z,0.89
2022-11-17T07:32:14.920Z,0.89
2022-11-17T07:34:47.128Z,0.88
2022-11-17T07:37:19.887Z,0.90
2022-11-17T07:39:52.035Z,0.91
2022-11-17T07:42:24.384Z,0.92
2022-11-17T07:47:46.871Z,0.95
2022-11-17T07:50:20.025Z,1.00
2022-11-17T07:52:52.653Z,1.05
2022-11-17T07:55:28.656Z,1.05
2022-11-17T07:58:03.099Z,1.07
2022-11-17T08:00:35.737Z,1.07
2022-11-17T08:03:07.995Z,1.07
2022-11-17T08:05:43.714Z,1.11
2022-11-17T08:08:16.332Z,1.14
2022-11-17T08:10:50.694Z,1.17
2022-11-17T08:13:24.240Z,1.22
2022-11-17T08:16:00.190Z,1.25
2022-11-17T08:18:32.838Z,1.25
2022-11-17T08:21:07.653Z,1.27
2022-11-17T08:23:40.515Z,1.34
2022-11-17T08:26:13.950Z,1.37
2022-11-17T08:28:50.172Z,1.35
2022-11-17T08:31:26.040Z,1.38
2022-11-17T08:33:58.349Z,1.40
2022-11-17T08:36:30.507Z,1.41
2022-11-17T08:39:05.245Z,1.44
2022-11-17T08:41:37.699Z,1.44
2022-11-17T08:44:10.045Z,1.47
2022-11-17T08:46:42.403Z,1.50
2022-11-17T08:49:14.894Z,1.55
2022-11-17T08:51:47.081Z,1.61
2022-11-17T08:54:21.418Z,1.66
2022-11-17T08:57:01.033Z,1.72
2022-11-17T08:59:33.594Z,1.82
2022-11-17T09:02:06.240Z,1.89
2022-11-17T09:04:38.530Z,1.98
2022-11-17T09:07:10.762Z,2.03
2022-11-17T09:09:43.003Z,2.11
2022-11-17T09:12:16.079Z,2.16
2022-11-17T09:14:48.368Z,2.22
2022-11-17T09:17:22.432Z,2.25
2022-11-17T09:19:54.575Z,2.26
2022-11-17T09:22:26.766Z,2.31
2022-11-17T09:25:01.451Z,2.36
2022-11-17T09:27:33.648Z,2.39
2022-11-17T09:30:07.882Z,2.48
2022-11-17T09:32:40.297Z,2.52
2022-11-17T09:35:13.002Z,2.58
2022-11-17T09:37:45.288Z,2.61
2022-11-17T09:40:19.760Z,2.64
2022-11-17T09:42:52.310Z,2.64
2022-11-17T09:45:29.289Z,2.63
2022-11-17T09:48:39.077Z,2.65
2022-11-17T09:51:10.121Z,2.63
2022-11-17T09:53:50.057Z,2.66
2022-11-17T09:56:25.003Z,2.67
2022-11-17T09:59:02.061Z,2.66
2022-11-17T10:01:34.737Z,2.68
2022-11-17T10:04:17.050Z,2.71
2022-11-17T10:06:54.666Z,2.72
2022-11-17T10:09:42.622Z,2.75
2022-11-17T10:12:20.468Z,2.75
2022-11-17T10:14:57.853Z,2.78
2022-11-17T10:17:30.801Z,2.80
2022-11-17T10:20:14.560Z,2.80
2022-11-17T10:22:48.794Z,2.83
2022-11-17T10:25:37.543Z,2.84
2022-11-17T10:28:29.012Z,2.85
2022-11-17T10:31:03.605Z,2.88
2022-11-17T10:33:42.071Z,2.89
2022-11-17T10:36:22.171Z,2.91
2022-11-17T10:38:57.095Z,2.89
2022-11-17T10:41:34.585Z,2.85
2022-11-17T10:44:16.925Z,2.85
2022-11-17T10:47:02.338Z,2.89
2022-11-17T10:49:38.005Z,2.93
2022-11-17T10:52:19.855Z,2.93
2022-11-17T10:54:52.135Z,2.91
2022-11-17T10:57:27.676Z,2.85
2022-11-17T11:00:00.016Z,2.86
2022-11-17T11:02:35.184Z,2.87
2022-11-17T11:05:14.317Z,2.87
2022-11-17T11:08:22.908Z,2.88
2022-11-17T11:11:35.884Z,2.84
2022-11-17T11:14:16.922Z,2.82
2022-11-17T11:16:51.576Z,2.86
2022-11-17T11:19:26.207Z,2.81
2022-11-17T11:22:23.328Z,2.76
2022-11-17T11:25:04.459Z,2.77
2022-11-17T11:27:56.611Z,2.79
2022-11-17T11:30:32.672Z,2.78
2022-11-17T11:33:22.235Z,2.78
2022-11-17T11:36:15.314Z,2.78
2022-11-17T11:39:05.215Z,2.70
2022-11-17T11:42:07.497Z,2.69
2022-11-17T11:44:53.716Z,2.65
2022-11-17T11:47:44.167Z,2.61
2022-11-17T11:50:21.907Z,2.61
2022-11-17T11:53:00.633Z,2.63
2022-11-17T11:55:38.810Z,2.63
2022-11-17T11:58:18.731Z,2.67
2022-11-17T12:00:54.933Z,2.71
2022-11-17T12:03:34.956Z,2.70
2022-11-17T12:06:34.271Z,2.71
2022-11-17T12:09:25.979Z,2.60
2022-11-17T12:12:02.292Z,2.61
2022-11-17T12:14:37.576Z,2.63
2022-11-17T12:17:23.588Z,2.60
2022-11-17T12:20:04.625Z,2.61
2022-11-17T12:23:10.958Z,2.60
2022-11-17T12:25:54.112Z,2.58
2022-11-17T12:28:36.742Z,2.61
2022-11-17T12:31:10.938Z,2.59
2022-11-17T12:34:18.282Z,2.62
2022-11-17T12:37:17.030Z,2.59
2022-11-17T12:40:07.940Z,2.62
2022-11-17T12:43:22.453Z,2.62
2022-11-17T12:46:14.467Z,2.55
2022-11-17T12:48:57.654Z,2.54
2022-11-17T12:51:40.436Z,2.56
2022-11-17T12:54:23.426Z,2.50
2022-11-17T12:57:06.803Z,2.49
2022-11-17T13:00:05.490Z,2.52
2022-11-17T13:02:59.261Z,2.60
2022-11-17T13:05:33.886Z,2.60
2022-11-17T13:08:21.149Z,2.61
2022-11-17T13:11:03.716Z,2.55
2022-11-17T13:13:37.189Z,2.54
2022-11-17T13:16:19.933Z,2.56
2022-11-17T13:18:52.148Z,2.58
2022-11-17T13:21:33.164Z,2.60
2022-11-17T13:24:05.878Z,2.59
2022-11-17T13:26:41.514Z,2.58
2022-11-17T13:29:33.393Z,2.56
2022-11-17T13:32:26.309Z,2.52
2022-11-17T13:35:29.300Z,2.45
2022-11-17T13:38:06.947Z,2.45
2022-11-17T13:40:41.146Z,2.37
2022-11-17T13:43:18.664Z,2.33
2022-11-17T13:45:52.295Z,2.32
2022-11-17T13:48:35.561Z,2.30
2022-11-17T13:51:30.043Z,2.31
2022-11-17T13:54:06.831Z,2.33
2022-11-17T13:56:41.331Z,2.28
2022-11-17T13:59:26.820Z,2.21
2022-11-17T14:02:26.804Z,2.20
2022-11-17T14:05:24.150Z,2.12
2022-11-17T14:08:00.093Z,2.10
2022-11-17T14:10:36.548Z,2.10
2022-11-17T14:13:38.743Z,2.12
2022-11-17T14:16:23.671Z,2.14
2022-11-17T14:19:01.905Z,2.18
2022-11-17T14:21:34.905Z,2.19
2022-11-17T14:24:11.992Z,2.20
2022-11-17T14:26:54.164Z,2.24
2022-11-17T14:29:29.850Z,2.22
2022-11-17T14:32:02.002Z,2.23
2022-11-17T14:34:36.725Z,2.20
2022-11-17T14:37:14.850Z,2.15
2022-11-17T14:39:49.122Z,2.13
2022-11-17T14:42:21.255Z,2.12
2022-11-17T14:44:53.967Z,2.10
2022-11-17T14:47:26.014Z,2.13
2022-11-17T14:50:00.546Z,2.12
2022-11-17T14:52:32.957Z,2.06
2022-11-17T14:55:09.595Z,2.03
2022-11-17T14:57:42.089Z,1.95
2022-11-17T15:00:20.585Z,1.97
2022-11-17T15:02:53.067Z,1.98
2022-11-17T15:05:25.173Z,1.99
2022-11-17T15:07:58.103Z,1.98
2022-11-17T15:10:31.294Z,1.93
2022-11-17T15:13:03.581Z,1.85
2022-11-17T15:15:35.718Z,1.83
2022-11-17T15:18:10.659Z,1.84
2022-11-17T15:20:42.846Z,1.84
2022-11-17T15:23:15.184Z,1.83
2022-11-17T15:25:49.551Z,1.83
2022-11-17T15:28:27.558Z,1.80
2022-11-17T15:31:08.535Z,1.77
2022-11-17T15:33:44.104Z,1.72
2022-11-17T15:36:18.248Z,1.68
2022-11-17T15:38:54.240Z,1.65
2022-11-17T15:41:32.562Z,1.63
2022-11-17T15:44:08.200Z,1.60
2022-11-17T15:46:46.957Z,1.56
2022-11-17T15:49:20.024Z,1.51
2022-11-17T15:51:52.131Z,1.50
2022-11-17T15:54:25.727Z,1.48
2022-11-17T15:56:57.901Z,1.46
2022-11-17T15:59:31.692Z,1.41
2022-11-17T16:02:10.953Z,1.40
2022-11-17T16:04:43.507Z,1.36
2022-11-17T16:07:18.407Z,1.33
2022-11-17T16:09:50.676Z,1.29
2022-11-17T16:12:22.809Z,1.28
2022-11-17T16:14:55.238Z,1.25
2022-11-17T16:17:27.657Z,1.24
2022-11-17T16:20:00.186Z,1.21
2022-11-17T16:22:33.419Z,1.19
2022-11-17T16:25:07.405Z,1.14
2022-11-17T16:27:41.943Z,1.11
2022-11-17T16:30:15.704Z,1.08
2022-11-17T16:32:48.001Z,1.05
2022-11-17T16:35:20.150Z,0.99
2022-11-17T16:37:55.192Z,0.95
2022-11-17T16:40:27.311Z,0.88
2022-11-17T16:43:00.181Z,0.85
2022-11-17T16:45:32.509Z,0.77
2022-11-17T16:48:08.297Z,0.77
2022-11-17T16:50:43.902Z,0.74
2022-11-17T16:53:16.344Z,0.71
2022-11-17T16:55:48.479Z,0.63
2022-11-17T16:58:20.874Z,0.61
2022-11-17T17:00:53.073Z,0.56
2022-11-17T17:03:28.242Z,0.54
2022-11-17T17:06:10.460Z,0.52
2022-11-17T17:08:43.385Z,0.46
2022-11-17T17:11:17.005Z,0.45
2022-11-17T17:13:49.276Z,0.44
2022-11-17T17:16:22.232Z,0.44
2022-11-17T17:18:59.530Z,0.45
2022-11-17T17:21:34.491Z,0.47
2022-11-17T17:24:07.607Z,0.46
2022-11-17T17:26:40.734Z,0.50
2022-11-17T17:29:14.143Z,0.52
2022-11-17T17:31:48.850Z,0.51
2022-11-17T17:34:21.065Z,0.51
2022-11-17T17:36:53.539Z,0.49
2022-11-17T17:39:25.761Z,0.47
2022-11-17T17:41:58.037Z,0.40
2022-11-17T17:44:30.354Z,0.35
2022-11-17T17:47:02.547Z,0.36
2022-11-17T17:49:34.724Z,0.35
2022-11-17T17:52:12.455Z,0.38
2022-11-17T17:54:46.289Z,0.38
2022-11-17T17:57:21.400Z,0.39
2022-11-17T17:59:53.902Z,0.37
2022-11-17T18:02:27.565Z,0.39
2022-11-17T18:05:06.454Z,0.39
2022-11-17T18:07:38.717Z,0.42
2022-11-17T18:10:12.633Z,0.43
2022-11-17T18:12:54.935Z,0.44
2022-11-17T18:15:29.435Z,0.43
2022-11-17T18:18:01.679Z,0.45
2022-11-17T18:20:34.119Z,0.51
2022-11-17T18:23:06.379Z,0.56
2022-11-17T18:25:38.603Z,0.57
2022-11-17T18:28:11.249Z,0.63
2022-11-17T18:30:43.707Z,0.69
2022-11-17T18:33:16.386Z,0.73
2022-11-17T18:35:51.326Z,0.76
2022-11-17T18:38:34.393Z,0.76
2022-11-17T18:41:10.991Z,0.78
2022-11-17T18:43:58.038Z,0.81
2022-11-17T18:46:31.996Z,0.82
2022-11-17T18:49:04.270Z,0.84
2022-11-17T18:55:32.302Z,0.73
2022-11-17T18:58:04.455Z,0.70
2022-11-17T19:00:37.695Z,0.73
2022-11-17T19:03:10.859Z,0.78
2022-11-17T19:05:57.122Z,0.80
2022-11-17T19:08:31.447Z,0.76
2022-11-17T19:11:32.982Z,0.75
2022-11-17T19:14:07.205Z,0.74
2022-11-17T19:16:44.435Z,0.73
2022-11-17T19:19:19.653Z,0.69
2022-11-17T19:21:52.293Z,0.68
2022-11-17T19:24:25.111Z,0.69
2022-11-17T19:26:57.262Z,0.69
2022-11-17T19:29:30.102Z,0.66
2022-11-17T19:32:02.303Z,0.64
2022-11-17T19:34:34.513Z,0.61
2022-11-17T19:37:06.800Z,0.61
2022-11-17T19:39:41.909Z,0.58
2022-11-17T19:42:14.126Z,0.58
2022-11-17T19:44:46.620Z,0.57
2022-11-17T19:47:19.251Z,0.56
2022-11-17T19:49:51.444Z,0.57
2022-11-17T19:52:24.094Z,0.58
2022-11-17T19:54:56.385Z,0.58
2022-11-17T19:57:28.756Z,0.59
2022-11-17T20:00:00.950Z,0.60
2022-11-17T20:02:33.477Z,0.59
2022-11-17T20:05:10.648Z,0.53
2022-11-17T20:07:45.403Z,0.56
2022-11-17T20:10:19.825Z,0.49
2022-11-17T20:12:53.378Z,0.45
2022-11-17T20:15:34.552Z,0.42
2022-11-17T20:18:07.479Z,0.36
2022-11-17T20:20:40.693Z,0.34
2022-11-17T20:23:13.072Z,0.37
2022-11-17T20:25:45.383Z,0.37
2022-11-17T20:28:17.721Z,0.33
2022-11-17T20:30:50.395Z,0.28
2022-11-17T20:33:22.520Z,0.27
2022-11-17T20:35:55.888Z,0.22
2022-11-17T20:38:28.687Z,0.19
2022-11-17T20:41:02.161Z,0.18
2022-11-17T20:43:35.134Z,0.16
2022-11-17T20:46:07.701Z,0.14
2022-11-17T20:48:39.899Z,0.13
2022-11-17T20:51:13.764Z,0.09
2022-11-17T20:53:46.210Z,0.07
2022-11-17T20:56:19.260Z,0.07
2022-11-17T20:58:51.901Z,0.08
2022-11-17T21:01:25.066Z,0.08
2022-11-17T21:03:57.553Z,0.07
2022-11-17T21:06:29.903Z,0.07
2022-11-17T21:09:04.720Z,0.07
2022-11-17T21:11:54.752Z,0.07
2022-11-17T21:14:28.034Z,0.05
2022-11-17T21:17:01.704Z,0.02
2022-11-17T21:19:38.766Z,0.01
2022-11-17T21:22:12.658Z,-0.03
2022-11-17T21:24:47.357Z,-0.01
2022-11-17T21:27:23.044Z,0.00
2022-11-17T21:29:58.295Z,0.02
2022-11-17T21:32:33.174Z,0.01
2022-11-17T21:35:06.646Z,-0.01
2022-11-17T21:37:41.169Z,0.01
2022-11-17T21:40:15.059Z,-0.03
2022-11-17T21:42:47.368Z,-0.09
2022-11-17T21:45:20.057Z,-0.13
2022-11-17T21:47:58.042Z,-0.19
2022-11-17T21:50:31.959Z,-0.29
2022-11-17T21:53:05.064Z,-0.32
2022-11-17T21:55:37.205Z,-0.36
2022-11-17T21:58:09.387Z,-0.43
2022-11-17T22:00:41.900Z,-0.43
2022-11-17T22:03:14.138Z,-0.46
2022-11-17T22:05:51.992Z,-0.50
2022-11-17T22:08:24.700Z,-0.67
2022-11-17T22:10:57.331Z,-0.75
2022-11-17T22:13:29.808Z,-0.77
2022-11-17T22:16:11.946Z,-0.76
2022-11-17T22:18:44.427Z,-0.83
2022-11-17T22:21:16.633Z,-0.88
2022-11-17T22:23:54.245Z,-0.85
2022-11-17T22:26:26.583Z,-0.85
2022-11-17T22:28:59.365Z,-0.94
2022-11-17T22:31:31.555Z,-1.00
2022-11-17T22:34:03.694Z,-1.09
2022-11-17T22:36:36.105Z,-1.12
2022-11-17T22:39:09.455Z,-1.13
2022-11-17T22:41:41.687Z,-1.17
2022-11-17T22:44:17.017Z,-1.21
2022-11-17T22:46:50.526Z,-1.19
2022-11-17T22:49:25.017Z,-1.19
2022-11-17T22:52:07.718Z,-1.25
2022-11-17T22:54:40.044Z,-1.35
2022-11-17T22:57:15.693Z,-1.39
2022-11-17T22:59:47.902Z,-1.48
2022-11-17T23:02:20.429Z,-1.51
2022-11-17T23:04:55.981Z,-1.50
2022-11-17T23:07:30.882Z,-1.46
2022-11-17T23:10:09.268Z,-1.48
2022-11-17T23:12:42.669Z,-1.56
2022-11-17T23:15:15.495Z,-1.61
2022-11-17T23:17:48.101Z,-1.64
2022-11-17T23:20:23.073Z,-1.66
2022-11-17T23:22:58.149Z,-1.70
2022-11-17T23:25:33.293Z,-1.73
2022-11-17T23:28:08.686Z,-1.79
2022-11-17T23:30:41.325Z,-1.84
2022-11-17T23:33:14.373Z,-1.85
2022-11-17T23:35:49.052Z,-1.89
2022-11-17T23:38:22.091Z,-1.93
2022-11-17T23:41:00.110Z,-1.92
2022-11-17T23:43:35.360Z,-1.94
2022-11-17T23:46:13.322Z,-1.99
2022-11-17T23:48:49.686Z,-2.05
2022-11-17T23:51:24.845Z,-2.11
2022-11-17T23:53:58.956Z,-2.16
2022-11-17T23:56:34.894Z,-2.15
2022-11-17T23:59:08.416Z,-2.09
